sensor_id;sensor_type;location;lat;lon;timestamp;pressure;altitude;pressure_sealevel;temperature
24201;BMP280;2801;50.972;7.856;2022-10-20T00:01:12;97909.88;;;9.58
24201;BMP280;2801;50.972;7.856;2022-10-20T00:03:39;97916.34;;;9.57
24201;BMP280;2801;50.972;7.856;2022-10-20T00:06:18;97914.94;;;9.59
24201;BMP280;2801;50.972;7.856;2022-10-20T00:08:45;97918.88;;;9.62
24201;BMP280;2801;50.972;7.856;2022-10-20T00:11:16;97906.59;;;9.61
24201;BMP280;2801;50.972;7.856;2022-10-20T00:13:47;97909.56;;;9.59
24201;BMP280;2801;50.972;7.856;2022-10-20T00:16:15;97909.75;;;9.63
24201;BMP280;2801;50.972;7.856;2022-10-20T00:18:43;97915.91;;;9.63
24201;BMP280;2801;50.972;7.856;2022-10-20T00:21:15;97906.31;;;9.62
24201;BMP280;2801;50.972;7.856;2022-10-20T00:23:42;97901.41;;;9.64
24201;BMP280;2801;50.972;7.856;2022-10-20T00:26:23;97902.34;;;9.60
24201;BMP280;2801;50.972;7.856;2022-10-20T00:28:51;97903.50;;;9.67
24201;BMP280;2801;50.972;7.856;2022-10-20T00:31:21;97892.56;;;9.55
24201;BMP280;2801;50.972;7.856;2022-10-20T00:33:48;97890.19;;;9.54
24201;BMP280;2801;50.972;7.856;2022-10-20T00:36:20;97893.97;;;9.53
24201;BMP280;2801;50.972;7.856;2022-10-20T00:38:47;97887.50;;;9.54
24201;BMP280;2801;50.972;7.856;2022-10-20T00:41:17;97859.25;;;9.39
24201;BMP280;2801;50.972;7.856;2022-10-20T00:43:51;97876.19;;;9.57
24201;BMP280;2801;50.972;7.856;2022-10-20T00:46:36;97863.72;;;9.52
24201;BMP280;2801;50.972;7.856;2022-10-20T00:49:17;97866.81;;;9.46
24201;BMP280;2801;50.972;7.856;2022-10-20T00:51:47;97858.31;;;9.44
24201;BMP280;2801;50.972;7.856;2022-10-20T00:54:19;97849.00;;;9.41
24201;BMP280;2801;50.972;7.856;2022-10-20T00:56:48;97844.75;;;9.40
24201;BMP280;2801;50.972;7.856;2022-10-20T00:59:22;97845.22;;;9.42
24201;BMP280;2801;50.972;7.856;2022-10-20T01:01:50;97839.88;;;9.42
24201;BMP280;2801;50.972;7.856;2022-10-20T01:04:18;97839.22;;;9.37
24201;BMP280;2801;50.972;7.856;2022-10-20T01:06:45;97846.16;;;9.38
24201;BMP280;2801;50.972;7.856;2022-10-20T01:09:12;97846.78;;;9.35
24201;BMP280;2801;50.972;7.856;2022-10-20T01:11:53;97848.78;;;9.29
24201;BMP280;2801;50.972;7.856;2022-10-20T01:17:20;97840.09;;;9.24
24201;BMP280;2801;50.972;7.856;2022-10-20T01:35:10;97808.84;;;9.11
24201;BMP280;2801;50.972;7.856;2022-10-20T01:38:00;97803.84;;;9.18
24201;BMP280;2801;50.972;7.856;2022-10-20T01:41:20;97816.59;;;9.21
24201;BMP280;2801;50.972;7.856;2022-10-20T01:43:52;97807.69;;;9.25
24201;BMP280;2801;50.972;7.856;2022-10-20T01:46:24;97810.66;;;9.24
24201;BMP280;2801;50.972;7.856;2022-10-20T01:48:51;97806.09;;;9.24
24201;BMP280;2801;50.972;7.856;2022-10-20T01:51:18;97805.00;;;9.25
24201;BMP280;2801;50.972;7.856;2022-10-20T01:53:45;97795.72;;;9.23
24201;BMP280;2801;50.972;7.856;2022-10-20T01:56:19;97793.03;;;9.23
24201;BMP280;2801;50.972;7.856;2022-10-20T01:59:18;97776.31;;;9.17
24201;BMP280;2801;50.972;7.856;2022-10-20T02:02:25;97771.88;;;9.13
24201;BMP280;2801;50.972;7.856;2022-10-20T02:05:28;97768.41;;;9.12
24201;BMP280;2801;50.972;7.856;2022-10-20T02:08:10;97757.91;;;9.16
24201;BMP280;2801;50.972;7.856;2022-10-20T02:10:49;97757.09;;;9.15
24201;BMP280;2801;50.972;7.856;2022-10-20T02:13:19;97746.53;;;9.10
24201;BMP280;2801;50.972;7.856;2022-10-20T02:15:55;97755.22;;;9.16
24201;BMP280;2801;50.972;7.856;2022-10-20T02:18:45;97752.84;;;9.14
24201;BMP280;2801;50.972;7.856;2022-10-20T02:21:13;97753.50;;;9.20
24201;BMP280;2801;50.972;7.856;2022-10-20T02:23:44;97738.22;;;9.12
24201;BMP280;2801;50.972;7.856;2022-10-20T02:26:17;97742.81;;;9.20
24201;BMP280;2801;50.972;7.856;2022-10-20T02:28:53;97752.41;;;9.21
24201;BMP280;2801;50.972;7.856;2022-10-20T02:31:21;97745.78;;;9.18
24201;BMP280;2801;50.972;7.856;2022-10-20T02:33:49;97750.53;;;9.21
24201;BMP280;2801;50.972;7.856;2022-10-20T02:36:20;97748.03;;;9.25
24201;BMP280;2801;50.972;7.856;2022-10-20T02:38:47;97747.72;;;9.26
24201;BMP280;2801;50.972;7.856;2022-10-20T02:41:14;97732.63;;;9.30
24201;BMP280;2801;50.972;7.856;2022-10-20T02:43:40;97729.50;;;9.37
24201;BMP280;2801;50.972;7.856;2022-10-20T02:46:07;97712.84;;;9.40
24201;BMP280;2801;50.972;7.856;2022-10-20T02:48:34;97704.81;;;9.40
24201;BMP280;2801;50.972;7.856;2022-10-20T02:51:06;97698.38;;;9.41
24201;BMP280;2801;50.972;7.856;2022-10-20T02:53:33;97699.66;;;9.43
24201;BMP280;2801;50.972;7.856;2022-10-20T02:56:00;97713.03;;;9.43
24201;BMP280;2801;50.972;7.856;2022-10-20T02:58:27;97717.59;;;9.43
24201;BMP280;2801;50.972;7.856;2022-10-20T03:00:54;97716.00;;;9.42
24201;BMP280;2801;50.972;7.856;2022-10-20T03:03:21;97710.34;;;9.43
24201;BMP280;2801;50.972;7.856;2022-10-20T03:05:47;97697.41;;;9.37
24201;BMP280;2801;50.972;7.856;2022-10-20T03:08:14;97688.16;;;9.43
24201;BMP280;2801;50.972;7.856;2022-10-20T03:10:42;97700.59;;;9.47
24201;BMP280;2801;50.972;7.856;2022-10-20T03:13:09;97713.97;;;9.47
24201;BMP280;2801;50.972;7.856;2022-10-20T03:15:37;97711.44;;;9.42
24201;BMP280;2801;50.972;7.856;2022-10-20T03:18:04;97723.59;;;9.48
24201;BMP280;2801;50.972;7.856;2022-10-20T03:20:32;97704.84;;;9.48
24201;BMP280;2801;50.972;7.856;2022-10-20T03:22:59;97706.41;;;9.49
24201;BMP280;2801;50.972;7.856;2022-10-20T03:25:25;97686.09;;;9.40
24201;BMP280;2801;50.972;7.856;2022-10-20T03:27:52;97702.78;;;9.45
24201;BMP280;2801;50.972;7.856;2022-10-20T03:30:19;97706.72;;;9.48
24201;BMP280;2801;50.972;7.856;2022-10-20T03:32:46;97699.81;;;9.47
24201;BMP280;2801;50.972;7.856;2022-10-20T03:35:13;97689.91;;;9.47
24201;BMP280;2801;50.972;7.856;2022-10-20T03:37:40;97684.84;;;9.46
24201;BMP280;2801;50.972;7.856;2022-10-20T03:40:07;97686.28;;;9.43
24201;BMP280;2801;50.972;7.856;2022-10-20T03:42:34;97684.38;;;9.44
24201;BMP280;2801;50.972;7.856;2022-10-20T03:45:02;97676.97;;;9.41
24201;BMP280;2801;50.972;7.856;2022-10-20T03:47:29;97665.94;;;9.42
24201;BMP280;2801;50.972;7.856;2022-10-20T03:49:56;97665.47;;;9.40
24201;BMP280;2801;50.972;7.856;2022-10-20T03:52:23;97662.00;;;9.40
24201;BMP280;2801;50.972;7.856;2022-10-20T03:54:49;97657.59;;;9.35
24201;BMP280;2801;50.972;7.856;2022-10-20T03:57:16;97661.53;;;9.38
24201;BMP280;2801;50.972;7.856;2022-10-20T03:59:44;97668.31;;;9.35
24201;BMP280;2801;50.972;7.856;2022-10-20T04:02:40;97657.72;;;9.30
24201;BMP280;2801;50.972;7.856;2022-10-20T04:05:09;97663.56;;;9.32
24201;BMP280;2801;50.972;7.856;2022-10-20T04:07:36;97652.06;;;9.32
24201;BMP280;2801;50.972;7.856;2022-10-20T04:10:04;97658.97;;;9.33
24201;BMP280;2801;50.972;7.856;2022-10-20T04:12:31;97651.91;;;9.37
24201;BMP280;2801;50.972;7.856;2022-10-20T04:14:57;97649.72;;;9.39
24201;BMP280;2801;50.972;7.856;2022-10-20T04:17:24;97649.13;;;9.42
24201;BMP280;2801;50.972;7.856;2022-10-20T04:19:51;97656.53;;;9.45
24201;BMP280;2801;50.972;7.856;2022-10-20T04:22:18;97648.50;;;9.45
24201;BMP280;2801;50.972;7.856;2022-10-20T04:24:44;97634.94;;;9.41
24201;BMP280;2801;50.972;7.856;2022-10-20T04:27:11;97635.44;;;9.43
24201;BMP280;2801;50.972;7.856;2022-10-20T04:29:38;97639.81;;;9.39
24201;BMP280;2801;50.972;7.856;2022-10-20T04:32:05;97631.94;;;9.43
24201;BMP280;2801;50.972;7.856;2022-10-20T04:34:32;97630.38;;;9.42
24201;BMP280;2801;50.972;7.856;2022-10-20T04:36:59;97631.00;;;9.39
24201;BMP280;2801;50.972;7.856;2022-10-20T04:39:26;97636.19;;;9.44
24201;BMP280;2801;50.972;7.856;2022-10-20T04:41:52;97635.25;;;9.40
24201;BMP280;2801;50.972;7.856;2022-10-20T04:44:19;97634.94;;;9.41
24201;BMP280;2801;50.972;7.856;2022-10-20T04:46:46;97629.91;;;9.40
24201;BMP280;2801;50.972;7.856;2022-10-20T04:49:13;97629.13;;;9.39
24201;BMP280;2801;50.972;7.856;2022-10-20T04:51:40;97623.47;;;9.41
24201;BMP280;2801;50.972;7.856;2022-10-20T04:54:07;97605.03;;;9.39
24201;BMP280;2801;50.972;7.856;2022-10-20T04:56:34;97616.22;;;9.50
24201;BMP280;2801;50.972;7.856;2022-10-20T04:59:01;97606.00;;;9.52
24201;BMP280;2801;50.972;7.856;2022-10-20T05:01:30;97601.59;;;9.47
24201;BMP280;2801;50.972;7.856;2022-10-20T05:03:57;97597.00;;;9.48
24201;BMP280;2801;50.972;7.856;2022-10-20T05:06:28;97589.47;;;9.50
24201;BMP280;2801;50.972;7.856;2022-10-20T05:09:02;97592.16;;;9.50
24201;BMP280;2801;50.972;7.856;2022-10-20T05:11:33;97579.56;;;9.50
24201;BMP280;2801;50.972;7.856;2022-10-20T05:14:01;97572.19;;;9.56
24201;BMP280;2801;50.972;7.856;2022-10-20T05:16:27;97570.44;;;9.51
24201;BMP280;2801;50.972;7.856;2022-10-20T05:18:54;97568.22;;;9.53
24201;BMP280;2801;50.972;7.856;2022-10-20T05:21:29;97558.94;;;9.51
24201;BMP280;2801;50.972;7.856;2022-10-20T05:23:59;97549.31;;;9.50
24201;BMP280;2801;50.972;7.856;2022-10-20T05:26:28;97534.06;;;9.50
24201;BMP280;2801;50.972;7.856;2022-10-20T05:29:05;97549.03;;;9.51
24201;BMP280;2801;50.972;7.856;2022-10-20T05:31:41;97539.72;;;9.49
24201;BMP280;2801;50.972;7.856;2022-10-20T05:34:09;97548.09;;;9.56
24201;BMP280;2801;50.972;7.856;2022-10-20T05:36:37;97554.69;;;9.58
24201;BMP280;2801;50.972;7.856;2022-10-20T05:39:04;97545.72;;;9.63
24201;BMP280;2801;50.972;7.856;2022-10-20T05:41:32;97552.34;;;9.65
24201;BMP280;2801;50.972;7.856;2022-10-20T05:44:06;97544.94;;;9.71
24201;BMP280;2801;50.972;7.856;2022-10-20T05:46:36;97533.28;;;9.75
24201;BMP280;2801;50.972;7.856;2022-10-20T05:49:14;97541.78;;;9.77
24201;BMP280;2801;50.972;7.856;2022-10-20T05:51:43;97532.03;;;9.81
24201;BMP280;2801;50.972;7.856;2022-10-20T05:54:12;97529.81;;;9.83
24201;BMP280;2801;50.972;7.856;2022-10-20T05:56:39;97515.78;;;9.86
24201;BMP280;2801;50.972;7.856;2022-10-20T05:59:08;97518.31;;;9.83
24201;BMP280;2801;50.972;7.856;2022-10-20T06:01:36;97522.72;;;9.87
24201;BMP280;2801;50.972;7.856;2022-10-20T06:04:18;97531.22;;;9.89
24201;BMP280;2801;50.972;7.856;2022-10-20T06:06:45;97524.94;;;9.94
24201;BMP280;2801;50.972;7.856;2022-10-20T06:09:15;97523.50;;;9.96
24201;BMP280;2801;50.972;7.856;2022-10-20T06:11:41;97518.59;;;9.98
24201;BMP280;2801;50.972;7.856;2022-10-20T06:14:09;97518.28;;;9.91
24201;BMP280;2801;50.972;7.856;2022-10-20T06:16:36;97545.38;;;9.98
24201;BMP280;2801;50.972;7.856;2022-10-20T06:19:04;97543.34;;;10.04
24201;BMP280;2801;50.972;7.856;2022-10-20T06:21:34;97554.25;;;10.07
24201;BMP280;2801;50.972;7.856;2022-10-20T06:24:06;97557.69;;;10.08
24201;BMP280;2801;50.972;7.856;2022-10-20T06:26:35;97555.97;;;10.12
24201;BMP280;2801;50.972;7.856;2022-10-20T06:29:05;97567.16;;;10.14
24201;BMP280;2801;50.972;7.856;2022-10-20T06:31:51;97566.53;;;10.17
24201;BMP280;2801;50.972;7.856;2022-10-20T06:34:21;97573.28;;;10.23
24201;BMP280;2801;50.972;7.856;2022-10-20T06:36:49;97572.97;;;10.24
24201;BMP280;2801;50.972;7.856;2022-10-20T06:39:20;97568.53;;;10.28
24201;BMP280;2801;50.972;7.856;2022-10-20T06:41:50;97575.63;;;10.33
24201;BMP280;2801;50.972;7.856;2022-10-20T06:44:20;97571.06;;;10.33
24201;BMP280;2801;50.972;7.856;2022-10-20T06:46:48;97570.75;;;10.35
24201;BMP280;2801;50.972;7.856;2022-10-20T06:49:17;97555.75;;;10.42
24201;BMP280;2801;50.972;7.856;2022-10-20T06:51:44;97556.69;;;10.46
24201;BMP280;2801;50.972;7.856;2022-10-20T06:54:11;97543.75;;;10.48
24201;BMP280;2801;50.972;7.856;2022-10-20T06:56:39;97553.38;;;10.49
24201;BMP280;2801;50.972;7.856;2022-10-20T06:59:06;97553.06;;;10.51
24201;BMP280;2801;50.972;7.856;2022-10-20T07:01:36;97561.41;;;10.58
24201;BMP280;2801;50.972;7.856;2022-10-20T07:04:08;97560.41;;;10.62
24201;BMP280;2801;50.972;7.856;2022-10-20T07:06:40;97558.53;;;10.63
24201;BMP280;2801;50.972;7.856;2022-10-20T07:09:15;97576.34;;;10.67
24201;BMP280;2801;50.972;7.856;2022-10-20T07:11:42;97574.41;;;10.76
24201;BMP280;2801;50.972;7.856;2022-10-20T07:14:12;97579.78;;;10.76
24201;BMP280;2801;50.972;7.856;2022-10-20T07:16:39;97593.31;;;10.80
24201;BMP280;2801;50.972;7.856;2022-10-20T07:19:06;97577.84;;;10.85
24201;BMP280;2801;50.972;7.856;2022-10-20T07:21:33;97570.47;;;10.82
24201;BMP280;2801;50.972;7.856;2022-10-20T07:24:06;97571.41;;;10.78
24201;BMP280;2801;50.972;7.856;2022-10-20T07:26:39;97569.53;;;10.78
24201;BMP280;2801;50.972;7.856;2022-10-20T07:29:08;97569.34;;;10.83
24201;BMP280;2801;50.972;7.856;2022-10-20T07:31:42;97567.47;;;10.84
24201;BMP280;2801;50.972;7.856;2022-10-20T07:34:11;97564.78;;;10.84
24201;BMP280;2801;50.972;7.856;2022-10-20T07:36:52;97569.44;;;10.95
24201;BMP280;2801;50.972;7.856;2022-10-20T07:39:19;97560.75;;;10.98
24201;BMP280;2801;50.972;7.856;2022-10-20T07:41:46;97569.41;;;11.04
24201;BMP280;2801;50.972;7.856;2022-10-20T07:44:14;97574.31;;;11.02
24201;BMP280;2801;50.972;7.856;2022-10-20T07:46:42;97561.97;;;11.09
24201;BMP280;2801;50.972;7.856;2022-10-20T07:49:09;97560.66;;;11.15
24201;BMP280;2801;50.972;7.856;2022-10-20T07:51:56;97576.41;;;11.25
24201;BMP280;2801;50.972;7.856;2022-10-20T07:54:22;97558.72;;;11.24
24201;BMP280;2801;50.972;7.856;2022-10-20T07:56:50;97571.72;;;11.43
24201;BMP280;2801;50.972;7.856;2022-10-20T07:59:17;97584.16;;;11.48
24201;BMP280;2801;50.972;7.856;2022-10-20T08:01:45;97576.06;;;11.56
24201;BMP280;2801;50.972;7.856;2022-10-20T08:04:12;97573.22;;;11.61
24201;BMP280;2801;50.972;7.856;2022-10-20T08:06:39;97570.47;;;11.70
24201;BMP280;2801;50.972;7.856;2022-10-20T08:09:06;97550.56;;;11.71
24201;BMP280;2801;50.972;7.856;2022-10-20T08:11:34;97542.22;;;11.64
24201;BMP280;2801;50.972;7.856;2022-10-20T08:14:01;97536.41;;;11.62
24201;BMP280;2801;50.972;7.856;2022-10-20T08:16:28;97524.81;;;11.70
24201;BMP280;2801;50.972;7.856;2022-10-20T08:19:00;97529.88;;;11.71
24201;BMP280;2801;50.972;7.856;2022-10-20T08:21:48;97514.03;;;11.78
24201;BMP280;2801;50.972;7.856;2022-10-20T08:24:15;97508.50;;;11.75
24201;BMP280;2801;50.972;7.856;2022-10-20T08:26:41;97511.84;;;11.72
24201;BMP280;2801;50.972;7.856;2022-10-20T08:29:08;97503.13;;;11.75
24201;BMP280;2801;50.972;7.856;2022-10-20T08:31:35;97503.47;;;11.73
24201;BMP280;2801;50.972;7.856;2022-10-20T08:34:02;97511.84;;;11.72
24201;BMP280;2801;50.972;7.856;2022-10-20T08:36:29;97509.16;;;11.72
24201;BMP280;2801;50.972;7.856;2022-10-20T08:39:00;97518.13;;;11.76
24201;BMP280;2801;50.972;7.856;2022-10-20T08:41:37;97502.16;;;11.79
24201;BMP280;2801;50.972;7.856;2022-10-20T08:44:31;97513.34;;;11.81
24201;BMP280;2801;50.972;7.856;2022-10-20T08:47:11;97527.69;;;11.85
24201;BMP280;2801;50.972;7.856;2022-10-20T08:49:39;97512.06;;;11.99
24201;BMP280;2801;50.972;7.856;2022-10-20T08:52:12;97502.38;;;12.07
24201;BMP280;2801;50.972;7.856;2022-10-20T08:54:42;97497.59;;;12.12
24201;BMP280;2801;50.972;7.856;2022-10-20T08:57:22;97503.97;;;12.20
24201;BMP280;2801;50.972;7.856;2022-10-20T08:59:52;97489.75;;;12.19
24201;BMP280;2801;50.972;7.856;2022-10-20T09:02:20;97487.75;;;12.16
24201;BMP280;2801;50.972;7.856;2022-10-20T09:04:56;97487.41;;;12.18
24201;BMP280;2801;50.972;7.856;2022-10-20T09:07:33;97489.41;;;12.21
24201;BMP280;2801;50.972;7.856;2022-10-20T09:10:49;97487.41;;;12.18
24201;BMP280;2801;50.972;7.856;2022-10-20T09:13:28;97474.06;;;12.21
24201;BMP280;2801;50.972;7.856;2022-10-20T09:16:05;97473.84;;;12.26
24201;BMP280;2801;50.972;7.856;2022-10-20T09:18:33;97460.66;;;12.33
24201;BMP280;2801;50.972;7.856;2022-10-20T09:21:15;97461.88;;;12.36
24201;BMP280;2801;50.972;7.856;2022-10-20T09:23:48;97454.06;;;12.31
24201;BMP280;2801;50.972;7.856;2022-10-20T09:29:35;97465.72;;;12.47
24201;BMP280;2801;50.972;7.856;2022-10-20T09:32:02;97468.31;;;12.55
24201;BMP280;2801;50.972;7.856;2022-10-20T09:34:49;97476.38;;;12.67
24201;BMP280;2801;50.972;7.856;2022-10-20T09:37:18;97473.81;;;12.71
24201;BMP280;2801;50.972;7.856;2022-10-20T09:42:28;97472.25;;;12.82
24201;BMP280;2801;50.972;7.856;2022-10-20T09:45:15;97485.91;;;12.89
24201;BMP280;2801;50.972;7.856;2022-10-20T09:47:45;97491.06;;;12.94
24201;BMP280;2801;50.972;7.856;2022-10-20T09:50:38;97482.88;;;12.90
24201;BMP280;2801;50.972;7.856;2022-10-20T09:53:17;97476.41;;;12.91
24201;BMP280;2801;50.972;7.856;2022-10-20T09:55:49;97481.31;;;12.89
24201;BMP280;2801;50.972;7.856;2022-10-20T09:58:31;97482.44;;;12.88
24201;BMP280;2801;50.972;7.856;2022-10-20T10:01:21;97495.34;;;12.83
24201;BMP280;2801;50.972;7.856;2022-10-20T10:03:51;97494.22;;;12.84
24201;BMP280;2801;50.972;7.856;2022-10-20T10:09:33;97491.19;;;12.73
24201;BMP280;2801;50.972;7.856;2022-10-20T10:12:16;97491.94;;;12.74
24201;BMP280;2801;50.972;7.856;2022-10-20T10:14:54;97505.19;;;12.67
24201;BMP280;2801;50.972;7.856;2022-10-20T10:17:42;97493.88;;;12.61
24201;BMP280;2801;50.972;7.856;2022-10-20T10:22:40;97507.16;;;12.46
24201;BMP280;2801;50.972;7.856;2022-10-20T10:25:16;97508.81;;;12.38
24201;BMP280;2801;50.972;7.856;2022-10-20T10:28:17;97510.03;;;12.29
24201;BMP280;2801;50.972;7.856;2022-10-20T10:30:45;97508.13;;;12.29
24201;BMP280;2801;50.972;7.856;2022-10-20T10:33:26;97504.22;;;12.27
24201;BMP280;2801;50.972;7.856;2022-10-20T10:35:53;97498.25;;;12.21
24201;BMP280;2801;50.972;7.856;2022-10-20T10:38:21;97499.63;;;12.27
24201;BMP280;2801;50.972;7.856;2022-10-20T10:43:56;97502.66;;;12.26
24201;BMP280;2801;50.972;7.856;2022-10-20T10:46:32;97502.84;;;12.21
24201;BMP280;2801;50.972;7.856;2022-10-20T10:49:37;97500.50;;;12.19
24201;BMP280;2801;50.972;7.856;2022-10-20T10:56:01;97496.13;;;12.15
24201;BMP280;2801;50.972;7.856;2022-10-20T10:58:56;97493.88;;;12.17
24201;BMP280;2801;50.972;7.856;2022-10-20T11:04:59;97492.09;;;12.21
24201;BMP280;2801;50.972;7.856;2022-10-20T11:11:02;97486.72;;;12.21
24201;BMP280;2801;50.972;7.856;2022-10-20T11:13:47;97485.72;;;12.25
24201;BMP280;2801;50.972;7.856;2022-10-20T11:19:41;97476.34;;;12.31
24201;BMP280;2801;50.972;7.856;2022-10-20T11:25:47;97469.03;;;12.20
24201;BMP280;2801;50.972;7.856;2022-10-20T11:28:38;97442.81;;;12.17
24201;BMP280;2801;50.972;7.856;2022-10-20T11:31:35;97440.03;;;12.25
24201;BMP280;2801;50.972;7.856;2022-10-20T11:34:17;97421.22;;;12.25
24201;BMP280;2801;50.972;7.856;2022-10-20T11:36:52;97423.13;;;12.25
24201;BMP280;2801;50.972;7.856;2022-10-20T11:39:36;97420.00;;;12.23
24201;BMP280;2801;50.972;7.856;2022-10-20T11:42:40;97438.72;;;12.31
24201;BMP280;2801;50.972;7.856;2022-10-20T11:45:56;97417.88;;;12.28
24201;BMP280;2801;50.972;7.856;2022-10-20T11:48:46;97439.72;;;12.27
24201;BMP280;2801;50.972;7.856;2022-10-20T11:57:51;97450.25;;;12.32
24201;BMP280;2801;50.972;7.856;2022-10-20T12:00:49;97451.59;;;12.38
24201;BMP280;2801;50.972;7.856;2022-10-20T12:04:20;97450.94;;;12.41
24201;BMP280;2801;50.972;7.856;2022-10-20T12:10:12;97453.53;;;12.61
24201;BMP280;2801;50.972;7.856;2022-10-20T12:15:30;97472.03;;;12.75
24201;BMP280;2801;50.972;7.856;2022-10-20T12:18:03;97456.66;;;12.75
24201;BMP280;2801;50.972;7.856;2022-10-20T12:23:04;97463.06;;;12.83
24201;BMP280;2801;50.972;7.856;2022-10-20T12:25:38;97454.66;;;12.84
24201;BMP280;2801;50.972;7.856;2022-10-20T12:31:02;97440.63;;;12.79
24201;BMP280;2801;50.972;7.856;2022-10-20T12:36:32;97451.97;;;12.84
24201;BMP280;2801;50.972;7.856;2022-10-20T12:39:13;97453.19;;;12.87
24201;BMP280;2801;50.972;7.856;2022-10-20T12:42:27;97446.25;;;12.86
24201;BMP280;2801;50.972;7.856;2022-10-20T12:45:02;97436.91;;;12.83
24201;BMP280;2801;50.972;7.856;2022-10-20T12:47:33;97442.53;;;12.90
24201;BMP280;2801;50.972;7.856;2022-10-20T12:50:06;97440.41;;;12.84
24201;BMP280;2801;50.972;7.856;2022-10-20T12:52:37;97431.34;;;12.76
24201;BMP280;2801;50.972;7.856;2022-10-20T12:55:15;97416.78;;;12.65
24201;BMP280;2801;50.972;7.856;2022-10-20T12:57:46;97419.81;;;12.52
24201;BMP280;2801;50.972;7.856;2022-10-20T13:02:49;97415.84;;;12.37
24201;BMP280;2801;50.972;7.856;2022-10-20T13:10:36;97401.28;;;12.14
24201;BMP280;2801;50.972;7.856;2022-10-20T13:15:43;97402.06;;;12.03
24201;BMP280;2801;50.972;7.856;2022-10-20T13:18:30;97403.38;;;11.97
24201;BMP280;2801;50.972;7.856;2022-10-20T13:21:31;97389.13;;;11.84
24201;BMP280;2801;50.972;7.856;2022-10-20T13:24:10;97384.56;;;11.85
24201;BMP280;2801;50.972;7.856;2022-10-20T13:29:26;97395.06;;;11.78
24201;BMP280;2801;50.972;7.856;2022-10-20T13:32:31;97393.94;;;11.79
24201;BMP280;2801;50.972;7.856;2022-10-20T13:35:20;97387.41;;;11.68
24201;BMP280;2801;50.972;7.856;2022-10-20T13:38:02;97380.25;;;11.72
24201;BMP280;2801;50.972;7.856;2022-10-20T13:44:01;97391.25;;;11.79
24201;BMP280;2801;50.972;7.856;2022-10-20T13:49:51;97371.69;;;11.78
24201;BMP280;2801;50.972;7.856;2022-10-20T13:52:21;97391.47;;;11.74
24201;BMP280;2801;50.972;7.856;2022-10-20T13:54:50;97387.44;;;11.80
24201;BMP280;2801;50.972;7.856;2022-10-20T13:57:32;97393.69;;;11.84
24201;BMP280;2801;50.972;7.856;2022-10-20T14:00:17;97388.78;;;11.86
24201;BMP280;2801;50.972;7.856;2022-10-20T14:03:17;97393.63;;;11.92
24201;BMP280;2801;50.972;7.856;2022-10-20T14:05:46;97397.22;;;11.96
24201;BMP280;2801;50.972;7.856;2022-10-20T14:08:15;97397.13;;;12.05
24201;BMP280;2801;50.972;7.856;2022-10-20T14:10:55;97393.31;;;12.06
24201;BMP280;2801;50.972;7.856;2022-10-20T14:13:30;97395.69;;;12.19
24201;BMP280;2801;50.972;7.856;2022-10-20T14:16:04;97395.34;;;12.21
24201;BMP280;2801;50.972;7.856;2022-10-20T14:18:35;97386.28;;;12.13
24201;BMP280;2801;50.972;7.856;2022-10-20T14:21:17;97385.50;;;12.25
24201;BMP280;2801;50.972;7.856;2022-10-20T14:23:46;97384.91;;;12.19
24201;BMP280;2801;50.972;7.856;2022-10-20T14:26:19;97381.13;;;12.20
24201;BMP280;2801;50.972;7.856;2022-10-20T14:28:50;97381.13;;;12.20
24201;BMP280;2801;50.972;7.856;2022-10-20T14:31:21;97389.31;;;12.24
24201;BMP280;2801;50.972;7.856;2022-10-20T14:33:51;97383.59;;;12.25
24201;BMP280;2801;50.972;7.856;2022-10-20T14:36:27;97391.56;;;12.22
24201;BMP280;2801;50.972;7.856;2022-10-20T14:38:59;97389.44;;;12.27
24201;BMP280;2801;50.972;7.856;2022-10-20T14:41:33;97395.13;;;12.26
24201;BMP280;2801;50.972;7.856;2022-10-20T14:44:05;97392.88;;;12.28
24201;BMP280;2801;50.972;7.856;2022-10-20T14:46:45;97387.84;;;12.26
24201;BMP280;2801;50.972;7.856;2022-10-20T14:49:28;97389.31;;;12.24
24201;BMP280;2801;50.972;7.856;2022-10-20T14:52:01;97377.22;;;12.18
24201;BMP280;2801;50.972;7.856;2022-10-20T14:54:34;97364.69;;;12.22
24201;BMP280;2801;50.972;7.856;2022-10-20T14:59:52;97370.72;;;12.19
24201;BMP280;2801;50.972;7.856;2022-10-20T15:07:53;97368.94;;;12.11
24201;BMP280;2801;50.972;7.856;2022-10-20T15:10:24;97380.00;;;12.09
24201;BMP280;2801;50.972;7.856;2022-10-20T15:12:53;97382.13;;;12.04
24201;BMP280;2801;50.972;7.856;2022-10-20T15:15:35;97371.13;;;11.97
24201;BMP280;2801;50.972;7.856;2022-10-20T15:23:19;97350.41;;;11.85
24201;BMP280;2801;50.972;7.856;2022-10-20T15:26:01;97359.72;;;11.88
24201;BMP280;2801;50.972;7.856;2022-10-20T15:28:39;97345.25;;;11.80
24201;BMP280;2801;50.972;7.856;2022-10-20T15:31:28;97356.78;;;11.81
24201;BMP280;2801;50.972;7.856;2022-10-20T15:33:57;97351.31;;;11.89
24201;BMP280;2801;50.972;7.856;2022-10-20T15:36:31;97347.72;;;11.85
24201;BMP280;2801;50.972;7.856;2022-10-20T15:39:00;97358.13;;;11.87
24201;BMP280;2801;50.972;7.856;2022-10-20T15:41:30;97349.31;;;11.86
24201;BMP280;2801;50.972;7.856;2022-10-20T15:44:17;97341.56;;;11.85
24201;BMP280;2801;50.972;7.856;2022-10-20T15:46:49;97342.91;;;11.79
24201;BMP280;2801;50.972;7.856;2022-10-20T15:49:19;97322.75;;;11.73
24201;BMP280;2801;50.972;7.856;2022-10-20T15:51:47;97330.94;;;11.76
24201;BMP280;2801;50.972;7.856;2022-10-20T15:54:19;97327.13;;;11.77
24201;BMP280;2801;50.972;7.856;2022-10-20T15:56:46;97331.16;;;11.83
24201;BMP280;2801;50.972;7.856;2022-10-20T15:59:13;97342.47;;;11.89
24201;BMP280;2801;50.972;7.856;2022-10-20T16:01:40;97326.22;;;11.85
24201;BMP280;2801;50.972;7.856;2022-10-20T16:04:24;97321.97;;;11.84
24201;BMP280;2801;50.972;7.856;2022-10-20T16:06:56;97320.53;;;11.87
24201;BMP280;2801;50.972;7.856;2022-10-20T16:09:28;97299.94;;;11.91
24201;BMP280;2801;50.972;7.856;2022-10-20T16:11:55;97309.78;;;11.87
24201;BMP280;2801;50.972;7.856;2022-10-20T16:14:22;97315.16;;;11.87
24201;BMP280;2801;50.972;7.856;2022-10-20T16:16:48;97321.66;;;11.86
24201;BMP280;2801;50.972;7.856;2022-10-20T16:19:15;97315.63;;;11.89
24201;BMP280;2801;50.972;7.856;2022-10-20T16:21:42;97317.06;;;11.86
24201;BMP280;2801;50.972;7.856;2022-10-20T16:24:09;97314.38;;;11.86
24201;BMP280;2801;50.972;7.856;2022-10-20T16:26:37;97298.03;;;11.79
24201;BMP280;2801;50.972;7.856;2022-10-20T16:29:03;97308.78;;;11.79
24201;BMP280;2801;50.972;7.856;2022-10-20T16:31:30;97304.53;;;11.78
24201;BMP280;2801;50.972;7.856;2022-10-20T16:34:00;97309.78;;;11.75
24201;BMP280;2801;50.972;7.856;2022-10-20T16:36:26;97305.06;;;11.72
24201;BMP280;2801;50.972;7.856;2022-10-20T16:38:55;97309.44;;;11.64
24201;BMP280;2801;50.972;7.856;2022-10-20T16:41:23;97302.81;;;11.62
24201;BMP280;2801;50.972;7.856;2022-10-20T16:43:50;97307.88;;;11.63
24201;BMP280;2801;50.972;7.856;2022-10-20T16:46:17;97306.47;;;11.57